Time;durP1;ratioP1;P1;durP2;ratioP2;P2;SDS_P1;SDS_P2;PMS_P1;PMS_P2;Temp;Humidity;BMP_temperature;BMP_pressure;BME280_temperature;BME280_humidity;BME280_pressure;Samples;Min_cycle;Max_cycle;Signal;HPM_P1;HPM_P2
2023/12/09 00:01:07;;;;;;;45.72;19.05;;;;;;;1.29;100.00;98225.81;3148165;23;20022;-93
2023/12/09 00:02:27;;;;;;;42.92;19.20;;;;;;;1.43;100.00;98209.56;3140246;23;20093;-93
2023/12/09 00:03:43;;;;;;;41.85;17.98;;;;;;;1.26;100.00;98221.53;3139829;23;20030;-94
2023/12/09 00:04:59;;;;;;;40.13;17.42;;;;;;;1.19;100.00;98219.75;3154262;23;20124;-94
2023/12/09 00:06:14;;;;;;;46.53;18.42;;;;;;;1.42;100.00;98226.75;3148132;23;20029;-93
2023/12/09 00:07:30;;;;;;;42.13;18.95;;;;;;;1.43;100.00;98225.03;3139668;23;20027;-95
2023/12/09 00:08:46;;;;;;;42.63;18.00;;;;;;;1.21;100.00;98220.63;3139179;23;20018;-92
2023/12/09 00:10:02;;;;;;;40.72;17.83;;;;;;;1.24;100.00;98222.34;3139869;23;20105;-95
2023/12/09 00:11:18;;;;;;;42.78;18.60;;;;;;;1.12;100.00;98223.16;3139324;23;20018;-96
2023/12/09 00:12:34;;;;;;;46.75;19.75;;;;;;;0.97;100.00;98227.31;3139091;23;20034;-93
2023/12/09 00:13:51;;;;;;;45.63;19.50;;;;;;;1.15;100.00;98225.75;3154379;23;20022;-94
2023/12/09 00:15:07;;;;;;;45.20;19.35;;;;;;;1.37;100.00;98231.00;3153541;23;20022;-94
2023/12/09 00:16:23;;;;;;;42.33;18.42;;;;;;;1.47;100.00;98219.91;3139587;23;20033;-94
2023/12/09 00:17:38;;;;;;;38.97;18.58;;;;;;;1.50;100.00;98224.22;3139340;23;20363;-94
2023/12/09 00:18:54;;;;;;;42.45;17.77;;;;;;;1.51;100.00;98231.94;3122272;23;20027;-94
2023/12/09 00:20:10;;;;;;;44.65;18.55;;;;;;;1.59;100.00;98228.56;3130000;23;20022;-94
2023/12/09 00:21:27;;;;;;;46.25;18.98;;;;;;;1.53;100.00;98222.50;3124285;23;20030;-94
2023/12/09 00:22:43;;;;;;;42.28;18.85;;;;;;;1.54;100.00;98225.94;3150715;23;20025;-95
2023/12/09 00:23:59;;;;;;;50.67;19.65;;;;;;;1.60;100.00;98227.69;3153305;23;20022;-94
2023/12/09 00:25:14;;;;;;;54.00;21.48;;;;;;;1.63;100.00;98226.00;3139442;23;20023;-94
2023/12/09 00:26:30;;;;;;;51.67;20.80;;;;;;;1.61;100.00;98226.84;3139181;23;20243;-94
2023/12/09 00:27:46;;;;;;;55.20;23.13;;;;;;;1.36;100.00;98224.13;3139146;23;20322;-94
2023/12/09 00:29:02;;;;;;;57.20;24.60;;;;;;;1.32;100.00;98219.81;3144242;23;20026;-94
2023/12/09 00:30:18;;;;;;;62.10;26.20;;;;;;;1.44;100.00;98222.47;3144125;23;20033;-93
2023/12/09 00:31:33;;;;;;;63.30;27.00;;;;;;;1.54;100.00;98218.22;3154038;23;20525;-94
2023/12/09 00:32:49;;;;;;;52.45;22.98;;;;;;;1.53;100.00;98219.06;3147637;23;20027;-94
2023/12/09 00:34:06;;;;;;;57.05;24.85;;;;;;;1.37;100.00;98218.13;3153332;23;20030;-94
2023/12/09 00:35:22;;;;;;;56.20;24.08;;;;;;;1.49;100.00;98222.50;3148125;23;20033;-94
2023/12/09 00:36:38;;;;;;;55.80;23.92;;;;;;;1.54;100.00;98224.25;3139588;23;20486;-93
2023/12/09 00:37:53;;;;;;;62.85;26.90;;;;;;;1.53;100.00;98221.66;3143994;23;20027;-94
2023/12/09 00:39:09;;;;;;;52.05;21.67;;;;;;;1.43;100.00;98223.31;3139008;23;20563;-94
2023/12/09 00:40:24;;;;;;;47.13;19.60;;;;;;;1.46;100.00;98218.19;3124901;23;20019;-95
2023/12/09 00:41:40;;;;;;;54.17;22.35;;;;;;;1.26;100.00;98226.69;3130131;23;20022;-94
2023/12/09 00:42:56;;;;;;;55.08;22.27;;;;;;;0.98;100.00;98231.66;3139172;23;20030;-95
2023/12/09 00:44:12;;;;;;;46.45;20.52;;;;;;;1.30;100.00;98226.69;3139054;23;20085;-95
2023/12/09 00:45:27;;;;;;;56.55;22.20;;;;;;;1.34;100.00;98228.44;3144165;23;20026;-93
2023/12/09 00:46:43;;;;;;;55.55;22.58;;;;;;;1.33;100.00;98237.91;3124372;23;20467;-94
2023/12/09 00:47:59;;;;;;;67.35;25.80;;;;;;;1.32;100.00;98224.97;3133026;23;20022;-94
2023/12/09 00:49:15;;;;;;;59.70;26.02;;;;;;;1.41;100.00;98231.03;3139801;23;20018;-94
2023/12/09 00:50:30;;;;;;;63.33;24.70;;;;;;;1.47;100.00;98229.38;3141662;23;20026;-96
2023/12/09 00:51:46;;;;;;;65.30;25.83;;;;;;;1.55;100.00;98223.38;3124443;23;20027;-95
2023/12/09 00:53:02;;;;;;;75.45;29.33;;;;;;;1.30;100.00;98232.69;3135068;23;20078;-94
2023/12/09 00:54:18;;;;;;;70.95;27.23;;;;;;;1.47;100.00;98235.38;3144039;23;20026;-94
2023/12/09 00:55:33;;;;;;;59.35;24.30;;;;;;;1.52;100.00;98228.50;3144008;23;20054;-93
2023/12/09 00:56:49;;;;;;;63.72;25.65;;;;;;;1.55;100.00;98228.56;3139170;23;20478;-93
2023/12/09 00:58:05;;;;;;;60.10;25.52;;;;;;;1.57;100.00;98225.97;3144403;23;20058;-93
2023/12/09 00:59:20;;;;;;;61.65;25.23;;;;;;;1.60;100.00;98223.38;3138927;23;20355;-93
2023/12/09 01:00:36;;;;;;;62.50;25.48;;;;;;;1.63;100.00;98227.72;3144810;23;20489;-94
2023/12/09 01:01:52;;;;;;;62.72;25.80;;;;;;;1.65;100.00;98228.56;3139733;23;20014;-93
2023/12/09 01:03:07;;;;;;;58.38;25.58;;;;;;;1.51;100.00;98231.09;3140394;23;20054;-94
2023/12/09 01:04:23;;;;;;;59.78;25.17;;;;;;;1.53;100.00;98227.66;3148924;23;20493;-94
2023/12/09 01:05:38;;;;;;;54.60;23.67;;;;;;;1.55;100.00;98230.25;3155108;23;20018;-93
2023/12/09 01:06:54;;;;;;;59.70;22.75;;;;;;;1.57;100.00;98227.69;3154144;23;20022;-93
2023/12/09 01:08:10;;;;;;;49.55;21.33;;;;;;;1.47;100.00;98227.63;3145104;23;20102;-94
2023/12/09 01:09:25;;;;;;;52.85;21.15;;;;;;;1.21;100.00;98223.19;3139789;23;20467;-93
2023/12/09 01:10:41;;;;;;;51.90;23.13;;;;;;;1.39;100.00;98224.16;3145508;23;20026;-93
2023/12/09 01:11:57;;;;;;;52.95;22.77;;;;;;;1.51;100.00;98221.63;3140316;23;20412;-94
2023/12/09 01:13:13;;;;;;;51.95;23.88;;;;;;;1.50;100.00;98219.91;3140384;23;20108;-94
2023/12/09 01:14:28;;;;;;;53.35;21.73;;;;;;;1.38;100.00;98223.28;3140086;23;20081;-94
2023/12/09 01:15:44;;;;;;;51.33;21.70;;;;;;;1.41;100.00;98219.88;3140208;23;20030;-94
2023/12/09 01:17:00;;;;;;;55.50;23.83;;;;;;;1.29;100.00;98220.66;3140443;23;20037;-94
2023/12/09 01:18:15;;;;;;;55.90;23.85;;;;;;;1.48;100.00;98219.03;3159039;23;20018;-93
2023/12/09 01:19:31;;;;;;;60.50;26.55;;;;;;;1.54;100.00;98216.50;3149486;23;20018;-94
2023/12/09 01:20:47;;;;;;;55.75;24.05;;;;;;;1.57;100.00;98214.78;3140332;23;20022;-95
2023/12/09 01:22:03;;;;;;;78.47;29.30;;;;;;;1.58;100.00;98212.19;3140340;23;20023;-94
2023/12/09 01:23:18;;;;;;;72.55;30.17;;;;;;;1.49;100.00;98218.19;3140449;23;20022;-92
2023/12/09 01:24:34;;;;;;;65.70;27.63;;;;;;;1.58;100.00;98209.63;3140468;23;20022;-93
2023/12/09 01:25:50;;;;;;;60.53;26.15;;;;;;;1.58;100.00;98213.94;3144870;23;20026;-92
2023/12/09 01:27:05;;;;;;;56.67;24.63;;;;;;;1.64;100.00;98211.38;3140903;23;20027;-93
2023/12/09 01:28:21;;;;;;;60.60;25.23;;;;;;;1.58;100.00;98211.34;3140323;23;20026;-93
2023/12/09 01:29:37;;;;;;;58.17;25.17;;;;;;;1.50;100.00;98209.59;3146189;23;20022;-93
2023/12/09 01:30:52;;;;;;;52.83;23.27;;;;;;;1.64;100.00;98216.53;3126271;23;20019;-94
2023/12/09 01:32:08;;;;;;;55.30;23.65;;;;;;;1.64;100.00;98216.53;3143951;23;20006;-93
2023/12/09 01:33:24;;;;;;;50.97;21.60;;;;;;;1.63;100.00;98222.53;3151974;23;20006;-94
2023/12/09 01:34:40;;;;;;;45.15;21.08;;;;;;;1.70;100.00;98224.31;3141737;23;20030;-93
2023/12/09 01:35:56;;;;;;;45.20;19.67;;;;;;;1.78;100.00;98222.59;3141334;23;20022;-94
2023/12/09 01:37:12;;;;;;;47.75;20.65;;;;;;;1.45;100.00;98223.31;3145760;23;20022;-93
2023/12/09 01:38:27;;;;;;;48.58;20.33;;;;;;;1.52;100.00;98214.75;3145206;23;20390;-94
2023/12/09 01:39:43;;;;;;;46.83;19.48;;;;;;;1.63;100.00;98215.69;3125176;23;20019;-93
2023/12/09 01:40:59;;;;;;;49.58;20.88;;;;;;;1.69;100.00;98218.28;3130953;23;20113;-94
2023/12/09 01:42:14;;;;;;;47.42;20.33;;;;;;;1.77;100.00;98223.47;3125104;23;20057;-95
2023/12/09 01:43:30;;;;;;;48.97;20.67;;;;;;;1.81;100.00;98219.19;3116089;23;20098;-93
2023/12/09 01:44:46;;;;;;;47.80;20.15;;;;;;;1.73;100.00;98220.88;3130959;23;20387;-94
2023/12/09 01:46:10;;;;;;;45.47;20.92;;;;;;;1.66;100.00;98222.56;3139580;23;20295;-94
2023/12/09 01:47:26;;;;;;;51.50;21.75;;;;;;;1.83;100.00;98217.47;3145427;23;20427;-93
2023/12/09 01:48:41;;;;;;;49.95;20.98;;;;;;;1.77;100.00;98220.03;3155029;23;20025;-94
2023/12/09 01:49:57;;;;;;;49.38;21.00;;;;;;;1.75;100.00;98220.03;3148692;23;20030;-94
2023/12/09 01:51:15;;;;;;;43.95;19.35;;;;;;;1.77;100.00;98223.47;3139538;23;20018;-93
2023/12/09 01:52:31;;;;;;;49.65;21.83;;;;;;;1.78;100.00;98226.94;3145337;23;20359;-94
2023/12/09 01:53:47;;;;;;;52.08;21.45;;;;;;;1.57;100.00;98214.78;3144954;23;20022;-94
2023/12/09 01:55:04;;;;;;;54.58;22.13;;;;;;;1.72;100.00;98224.31;3144859;23;20022;-94
2023/12/09 01:56:20;;;;;;;52.92;20.92;;;;;;;1.71;100.00;98220.88;3145405;23;20470;-93
2023/12/09 01:57:36;;;;;;;50.95;21.27;;;;;;;1.59;100.00;98224.25;3144679;23;20046;-93
2023/12/09 01:58:53;;;;;;;48.45;21.00;;;;;;;1.27;100.00;98224.94;3139866;23;20029;-93
2023/12/09 02:00:10;;;;;;;50.60;21.42;;;;;;;1.36;100.00;98221.56;3145017;23;20026;-94
2023/12/09 02:01:26;;;;;;;52.03;20.67;;;;;;;1.46;100.00;98217.28;3140035;23;20057;-93
2023/12/09 02:02:44;;;;;;;49.65;21.35;;;;;;;1.64;100.00;98219.09;3145092;23;20462;-93
2023/12/09 02:04:00;;;;;;;49.45;20.83;;;;;;;1.69;100.00;98217.44;3139975;23;20034;-94
2023/12/09 02:05:15;;;;;;;47.72;20.17;;;;;;;1.66;100.00;98218.28;3140024;23;20793;-93
2023/12/09 02:06:31;;;;;;;49.92;20.02;;;;;;;1.62;100.00;98218.25;3144683;23;20026;-93
2023/12/09 02:07:47;;;;;;;50.13;21.20;;;;;;;1.45;100.00;98215.56;3144599;23;20030;-93
2023/12/09 02:09:03;;;;;;;48.22;21.02;;;;;;;1.55;100.00;98214.78;3144733;23;20054;-93
2023/12/09 02:10:19;;;;;;;45.00;19.30;;;;;;;1.58;100.00;98222.53;3144515;23;20034;-93
2023/12/09 02:11:57;;;;;;;47.47;20.20;;;;;;;1.35;100.00;98219.84;3138981;23;20018;-94
2023/12/09 02:13:23;;;;;;;45.00;19.17;;;;;;;1.38;100.00;98219.84;3149017;23;20795;-93
2023/12/09 02:15:01;;;;;;;48.03;20.13;;;;;;;1.54;100.00;98216.50;3146528;23;20022;-93
2023/12/09 02:16:22;;;;;;;51.28;20.48;;;;;;;1.65;100.00;98221.72;3128878;23;20018;-94
2023/12/09 02:17:57;;;;;;;43.85;19.70;;;;;;;1.77;100.00;98223.47;3132207;23;20562;-94
2023/12/09 02:19:14;;;;;;;41.75;19.63;;;;;;;1.78;100.00;98224.34;3148752;23;20029;-94
2023/12/09 02:20:30;;;;;;;49.85;19.63;;;;;;;1.48;100.00;98221.63;3124939;23;20419;-94
2023/12/09 02:21:59;;;;;;;46.92;19.52;;;;;;;1.62;100.00;98228.56;3115803;23;20030;-93
2023/12/09 02:23:15;;;;;;;46.05;18.60;;;;;;;1.57;100.00;98230.28;3121542;23;20025;-94
2023/12/09 02:24:32;;;;;;;47.38;20.00;;;;;;;1.41;100.00;98227.63;3130976;23;20050;-94
2023/12/09 02:25:54;;;;;;;46.13;19.67;;;;;;;1.51;100.00;98231.09;3140238;23;20025;-94
2023/12/09 02:27:15;;;;;;;44.25;18.67;;;;;;;1.58;100.00;98222.53;3145942;23;20022;-94
2023/12/09 02:28:32;;;;;;;44.63;19.45;;;;;;;1.57;100.00;98225.97;3125556;23;20403;-94
2023/12/09 02:29:59;;;;;;;43.53;18.20;;;;;;;1.58;100.00;98219.94;3151844;23;20434;-95
2023/12/09 02:31:23;;;;;;;40.80;17.85;;;;;;;1.71;100.00;98218.28;3148942;23;20058;-93
2023/12/09 02:32:39;;;;;;;44.53;19.70;;;;;;;1.45;100.00;98224.19;3126383;23;20019;-93
2023/12/09 02:33:56;;;;;;;47.92;20.85;;;;;;;1.62;100.00;98218.25;3139768;23;20097;-93
2023/12/09 02:35:14;;;;;;;45.83;19.65;;;;;;;1.72;100.00;98213.97;3139868;23;20024;-92
2023/12/09 02:36:31;;;;;;;47.83;19.92;;;;;;;1.78;100.00;98217.44;3140306;23;20081;-93
2023/12/09 02:37:49;;;;;;;51.97;20.70;;;;;;;1.75;100.00;98219.19;3145307;23;20405;-93
2023/12/09 02:39:07;;;;;;;49.30;21.38;;;;;;;1.73;100.00;98215.69;3140329;23;20030;-94
2023/12/09 02:40:24;;;;;;;45.28;20.73;;;;;;;1.77;100.00;98213.13;3140291;23;20049;-93
2023/12/09 02:41:42;;;;;;;54.20;22.52;;;;;;;1.83;100.00;98213.19;3140292;23;20106;-93
2023/12/09 02:42:58;;;;;;;50.40;21.52;;;;;;;1.88;100.00;98212.31;3145030;23;20490;-94
2023/12/09 02:44:14;;;;;;;50.65;20.85;;;;;;;1.69;100.00;98214.84;3124611;23;20042;-93
2023/12/09 02:45:30;;;;;;;54.63;22.45;;;;;;;1.78;100.00;98214.03;3130687;23;20042;-94
2023/12/09 02:46:54;;;;;;;53.28;22.15;;;;;;;1.76;100.00;98213.16;3140048;23;20022;-95
2023/12/09 02:48:10;;;;;;;49.28;20.95;;;;;;;1.75;100.00;98216.59;3146396;23;20526;-93
2023/12/09 02:49:25;;;;;;;46.58;20.00;;;;;;;1.78;100.00;98206.28;3139978;23;20425;-93
2023/12/09 02:50:41;;;;;;;50.22;20.27;;;;;;;1.80;100.00;98213.16;3139726;23;20026;-94
2023/12/09 02:51:57;;;;;;;46.88;20.00;;;;;;;1.81;100.00;98203.69;3124865;23;20125;-93
2023/12/09 02:53:14;;;;;;;48.15;19.90;;;;;;;1.73;100.00;98206.25;3115992;23;20079;-93
2023/12/09 02:54:29;;;;;;;50.80;20.13;;;;;;;1.64;100.00;98206.22;3131243;23;20320;-94
2023/12/09 02:55:45;;;;;;;46.88;20.15;;;;;;;1.36;100.00;98211.22;3145017;23;20378;-94
2023/12/09 02:57:01;;;;;;;47.92;19.73;;;;;;;1.33;100.00;98211.22;3144922;23;20022;-94
2023/12/09 02:58:17;;;;;;;52.42;20.88;;;;;;;1.27;100.00;98214.63;3139310;23;20446;-93
2023/12/09 02:59:32;;;;;;;47.47;19.90;;;;;;;1.14;100.00;98211.13;3139748;23;20477;-93
2023/12/09 03:00:48;;;;;;;52.97;19.92;;;;;;;1.24;100.00;98206.88;3124830;23;20042;-93
2023/12/09 03:02:04;;;;;;;50.28;20.23;;;;;;;1.38;100.00;98204.38;3130861;23;20027;-93
2023/12/09 03:03:19;;;;;;;50.20;20.73;;;;;;;1.44;100.00;98207.00;3144916;23;20026;-93
2023/12/09 03:04:35;;;;;;;49.22;19.85;;;;;;;1.39;100.00;98212.13;3139815;23;20351;-93
2023/12/09 03:05:51;;;;;;;44.17;19.60;;;;;;;1.61;100.00;98206.19;3154589;23;20085;-94
2023/12/09 03:07:06;;;;;;;51.92;19.85;;;;;;;1.62;100.00;98213.97;3153731;23;20054;-95
2023/12/09 03:08:22;;;;;;;45.42;18.80;;;;;;;1.53;100.00;98213.91;3124719;23;20030;-93
2023/12/09 03:09:38;;;;;;;48.88;20.75;;;;;;;1.65;100.00;98219.13;3131179;23;20045;-93
2023/12/09 03:10:53;;;;;;;51.13;21.05;;;;;;;1.69;100.00;98220.00;3139508;23;20057;-95
2023/12/09 03:12:09;;;;;;;45.72;19.75;;;;;;;1.71;100.00;98226.03;3139603;23;20029;-94
2023/12/09 03:13:26;;;;;;;49.97;20.55;;;;;;;1.46;100.00;98230.19;3139755;23;20534;-93
2023/12/09 03:14:42;;;;;;;46.55;20.50;;;;;;;1.48;100.00;98231.09;3140249;23;20045;-94
2023/12/09 03:15:59;;;;;;;45.65;20.08;;;;;;;1.59;100.00;98231.13;3148489;23;20054;-93
2023/12/09 03:17:15;;;;;;;44.47;19.88;;;;;;;1.52;100.00;98228.50;3144907;23;20479;-94
2023/12/09 03:18:30;;;;;;;49.65;21.23;;;;;;;1.52;100.00;98232.81;3139866;23;20026;-94
2023/12/09 03:19:46;;;;;;;50.15;21.63;;;;;;;1.53;100.00;98237.13;3139821;23;20041;-94
2023/12/09 03:21:03;;;;;;;53.95;22.02;;;;;;;1.37;100.00;98234.47;3140816;23;20026;-94
2023/12/09 03:22:18;;;;;;;53.00;22.40;;;;;;;1.43;100.00;98233.66;3149623;23;20022;-95
2023/12/09 03:23:34;;;;;;;54.38;23.35;;;;;;;1.48;100.00;98231.94;3137407;23;20007;-93
2023/12/09 03:24:50;;;;;;;51.20;22.58;;;;;;;1.62;100.00;98226.00;3137816;23;20022;-94
2023/12/09 03:26:13;;;;;;;52.60;22.85;;;;;;;1.69;100.00;98235.50;3139704;23;20026;-93
2023/12/09 03:27:29;;;;;;;51.55;21.48;;;;;;;1.78;100.00;98229.50;3146337;23;20031;-94
2023/12/09 03:28:45;;;;;;;52.67;21.13;;;;;;;1.84;100.00;98232.09;3139359;23;20074;-94
2023/12/09 03:30:01;;;;;;;53.45;22.38;;;;;;;1.85;100.00;98225.22;3139845;23;20026;-93
2023/12/09 03:31:16;;;;;;;51.58;21.77;;;;;;;1.88;100.00;98226.06;3139511;23;20058;-94
2023/12/09 03:32:32;;;;;;;54.92;23.23;;;;;;;1.89;100.00;98221.78;3133330;23;20411;-94
2023/12/09 03:33:48;;;;;;;55.08;23.55;;;;;;;1.83;100.00;98218.34;3150845;23;20026;-93
2023/12/09 03:35:04;;;;;;;59.72;24.20;;;;;;;1.85;100.00;98220.91;3153208;23;20022;-94
2023/12/09 03:36:20;;;;;;;60.08;23.98;;;;;;;1.78;100.00;98225.19;3139538;23;20021;-93
2023/12/09 03:37:35;;;;;;;61.63;25.38;;;;;;;1.80;100.00;98231.22;3147881;23;20046;-93
2023/12/09 03:38:51;;;;;;;59.97;24.65;;;;;;;1.86;100.00;98222.63;3139052;23;20021;-94
2023/12/09 03:40:10;;;;;;;56.90;24.67;;;;;;;1.88;100.00;98225.22;3139394;23;20077;-94
2023/12/09 03:41:25;;;;;;;60.55;24.27;;;;;;;1.89;100.00;98219.22;3145294;23;20641;-94
2023/12/09 03:42:41;;;;;;;61.35;26.42;;;;;;;1.93;100.00;98226.09;3124093;23;20030;-93
2023/12/09 03:43:57;;;;;;;55.30;23.50;;;;;;;1.91;100.00;98217.50;3124368;23;20046;-93
2023/12/09 03:45:12;;;;;;;54.75;23.45;;;;;;;1.81;100.00;98222.63;3135392;23;20038;-94
2023/12/09 03:46:28;;;;;;;51.70;23.08;;;;;;;1.79;100.00;98221.75;3144367;23;20026;-94
2023/12/09 03:47:45;;;;;;;52.80;22.27;;;;;;;1.50;100.00;98221.63;3139339;23;20018;-94
2023/12/09 03:49:00;;;;;;;57.92;21.88;;;;;;;1.38;100.00;98225.00;3144230;23;20458;-94
2023/12/09 03:50:16;;;;;;;57.95;23.70;;;;;;;1.52;100.00;98217.34;3139385;23;20191;-94
2023/12/09 03:51:32;;;;;;;50.85;22.25;;;;;;;1.35;100.00;98219.84;3124131;23;20027;-93
2023/12/09 03:52:48;;;;;;;52.67;22.67;;;;;;;1.61;100.00;98225.13;3135044;23;20022;-93
2023/12/09 03:54:04;;;;;;;58.03;24.48;;;;;;;1.58;100.00;98221.69;3138941;23;20029;-93
2023/12/09 03:55:19;;;;;;;59.17;24.70;;;;;;;1.57;100.00;98225.13;3144356;23;20560;-93
2023/12/09 03:56:35;;;;;;;59.63;22.65;;;;;;;1.51;100.00;98221.63;3144609;23;20074;-93
2023/12/09 03:57:50;;;;;;;55.10;23.33;;;;;;;1.63;100.00;98228.59;3143999;23;20070;-93
2023/12/09 03:59:06;;;;;;;54.97;23.85;;;;;;;1.69;100.00;98226.03;3140134;23;20203;-93
2023/12/09 04:00:22;;;;;;;59.25;23.73;;;;;;;1.74;100.00;98228.63;3139124;23;20033;-93
2023/12/09 04:01:49;;;;;;;61.55;24.50;;;;;;;1.67;100.00;98225.16;3144367;23;20022;-93
2023/12/09 04:03:06;;;;;;;60.50;23.85;;;;;;;1.59;100.00;98221.66;3141716;23;20022;-94
2023/12/09 04:04:22;;;;;;;59.35;24.05;;;;;;;1.65;100.00;98226.00;3139961;23;20022;-94
2023/12/09 04:05:38;;;;;;;62.78;24.67;;;;;;;1.73;100.00;98218.28;3144483;23;20019;-94
2023/12/09 04:06:54;;;;;;;60.65;24.80;;;;;;;1.82;100.00;98224.38;3154014;23;20030;-94
2023/12/09 04:08:10;;;;;;;50.95;22.65;;;;;;;1.78;100.00;98227.78;3133285;23;20029;-92
2023/12/09 04:09:26;;;;;;;56.20;23.83;;;;;;;1.74;100.00;98226.03;3139164;23;20026;-93
2023/12/09 04:10:41;;;;;;;58.10;23.33;;;;;;;1.81;100.00;98229.50;3144488;23;20026;-92
2023/12/09 04:11:57;;;;;;;56.47;23.83;;;;;;;1.83;100.00;98228.66;3139239;23;20073;-92
2023/12/09 04:13:13;;;;;;;55.55;23.92;;;;;;;1.73;100.00;98226.91;3139891;23;20022;-93
2023/12/09 04:14:29;;;;;;;58.75;23.90;;;;;;;1.67;100.00;98232.03;3148200;23;20030;-94
2023/12/09 04:15:44;;;;;;;59.65;23.15;;;;;;;1.43;100.00;98233.66;3139269;23;20542;-95
2023/12/09 04:17:00;;;;;;;50.47;21.98;;;;;;;1.19;100.00;98224.91;3144332;23;20110;-96
2023/12/09 04:18:17;;;;;;;57.90;24.88;;;;;;;1.32;100.00;98232.72;3139061;23;20019;-94
2023/12/09 04:19:32;;;;;;;64.18;25.08;;;;;;;1.34;100.00;98226.72;3124380;23;20019;-94
2023/12/09 04:20:48;;;;;;;54.58;23.48;;;;;;;1.12;100.00;98223.16;3139039;23;20018;-94
2023/12/09 04:22:04;;;;;;;58.38;25.25;;;;;;;1.40;100.00;98228.47;3139655;23;20027;-95
2023/12/09 04:23:19;;;;;;;58.38;24.45;;;;;;;1.56;100.00;98224.25;3144061;23;20081;-94
2023/12/09 04:24:35;;;;;;;61.47;24.25;;;;;;;1.62;100.00;98221.69;3144587;23;20026;-95
2023/12/09 04:25:51;;;;;;;60.13;25.27;;;;;;;1.70;100.00;98232.06;3124019;23;20018;-93
2023/12/09 04:27:07;;;;;;;58.42;25.20;;;;;;;1.77;100.00;98233.78;3115657;23;20027;-94
2023/12/09 04:28:22;;;;;;;56.63;25.23;;;;;;;1.82;100.00;98239.84;3115294;23;20019;-95
2023/12/09 04:29:38;;;;;;;57.58;24.13;;;;;;;1.83;100.00;98238.13;3135260;23;20038;-93
2023/12/09 04:30:54;;;;;;;58.10;24.65;;;;;;;1.81;100.00;98245.00;3144195;23;20446;-94
2023/12/09 04:32:09;;;;;;;60.67;25.23;;;;;;;1.78;100.00;98245.00;3139214;23;20037;-94
2023/12/09 04:33:25;;;;;;;58.83;24.48;;;;;;;1.75;100.00;98242.41;3139329;23;20026;-94
2023/12/09 04:34:42;;;;;;;54.10;23.65;;;;;;;1.80;100.00;98243.28;3138715;23;20019;-93
2023/12/09 04:35:58;;;;;;;58.20;24.65;;;;;;;1.74;100.00;98241.53;3140507;23;20097;-94
2023/12/09 04:37:14;;;;;;;55.30;24.40;;;;;;;1.69;100.00;98243.25;3140720;23;20025;-94
2023/12/09 04:38:29;;;;;;;57.88;23.35;;;;;;;1.69;100.00;98243.25;3140460;23;20022;-94
2023/12/09 04:39:45;;;;;;;56.25;23.13;;;;;;;1.71;100.00;98248.38;3145047;23;20022;-94
2023/12/09 04:41:01;;;;;;;55.25;22.90;;;;;;;1.66;100.00;98244.06;3154752;23;20096;-93
2023/12/09 04:42:18;;;;;;;55.20;24.70;;;;;;;1.34;100.00;98249.06;3149071;23;20082;-93
2023/12/09 04:43:34;;;;;;;66.40;26.52;;;;;;;1.58;100.00;98253.50;3139944;23;20061;-93
2023/12/09 04:44:49;;;;;;;66.57;27.52;;;;;;;1.41;100.00;98254.25;3139903;23;20616;-94
2023/12/09 04:46:05;;;;;;;69.18;27.67;;;;;;;1.37;100.00;98254.22;3145321;23;20124;-94
2023/12/09 04:47:21;;;;;;;65.75;27.20;;;;;;;1.37;100.00;98247.38;3139745;23;20061;-93
2023/12/09 04:48:37;;;;;;;62.20;28.80;;;;;;;1.50;100.00;98252.59;3145179;23;20022;-95
2023/12/09 04:49:52;;;;;;;62.00;28.20;;;;;;;1.36;100.00;98248.22;3149451;23;20045;-93
2023/12/09 04:51:08;;;;;;;61.05;27.05;;;;;;;1.49;100.00;98249.16;3145156;23;20083;-93
2023/12/09 04:52:24;;;;;;;64.68;27.13;;;;;;;1.61;100.00;98243.22;3139924;23;20018;-93
2023/12/09 04:53:42;;;;;;;63.30;26.35;;;;;;;1.62;100.00;98241.47;3155238;23;20024;-95
2023/12/09 04:54:58;;;;;;;64.30;27.65;;;;;;;1.66;100.00;98235.47;3148721;23;20122;-94
2023/12/09 04:56:14;;;;;;;63.97;27.45;;;;;;;1.73;100.00;98234.66;3155069;23;20026;-93
2023/12/09 04:57:32;;;;;;;62.00;26.60;;;;;;;1.72;100.00;98229.47;3152794;23;20022;-94
2023/12/09 04:58:48;;;;;;;65.45;27.77;;;;;;;1.79;100.00;98236.38;3139873;23;20156;-94
2023/12/09 05:00:05;;;;;;;69.50;28.98;;;;;;;1.72;100.00;98232.03;3140499;23;20029;-92
2023/12/09 05:01:21;;;;;;;69.03;28.75;;;;;;;1.75;100.00;98237.25;3145371;23;20030;-94
2023/12/09 05:02:37;;;;;;;69.00;28.17;;;;;;;1.71;100.00;98238.06;3140054;23;20033;-94
2023/12/09 05:03:53;;;;;;;67.55;27.27;;;;;;;1.69;100.00;98240.66;3145410;23;20351;-91
2023/12/09 05:05:09;;;;;;;68.45;28.75;;;;;;;1.73;100.00;98237.22;3140296;23;20053;-91
2023/12/09 05:06:24;;;;;;;70.45;28.92;;;;;;;1.72;100.00;98235.50;3140440;23;20342;-93
2023/12/09 05:07:40;;;;;;;66.10;27.67;;;;;;;1.76;100.00;98236.38;3154447;23;20458;-94
2023/12/09 05:08:56;;;;;;;67.55;28.38;;;;;;;1.82;100.00;98236.41;3140747;23;20022;-93
2023/12/09 05:10:12;;;;;;;64.38;28.67;;;;;;;1.86;100.00;98239.84;3145255;23;20290;-94
2023/12/09 05:11:28;;;;;;;70.55;29.63;;;;;;;1.83;100.00;98240.69;3144981;23;20363;-94
2023/12/09 05:12:43;;;;;;;74.43;30.25;;;;;;;1.86;100.00;98239.84;3161224;23;20018;-94
2023/12/09 05:13:59;;;;;;;68.50;29.00;;;;;;;1.92;100.00;98253.66;3142611;23;20022;-94
2023/12/09 05:15:15;;;;;;;68.72;29.17;;;;;;;1.93;100.00;98241.59;3159321;23;20026;-95
2023/12/09 05:16:31;;;;;;;74.22;29.88;;;;;;;1.80;100.00;98249.28;3151323;23;20082;-93
2023/12/09 05:17:47;;;;;;;72.57;29.10;;;;;;;1.61;100.00;98255.22;3145681;23;20098;-93
2023/12/09 05:19:03;;;;;;;70.80;28.30;;;;;;;1.37;100.00;98252.53;3140066;23;20485;-91
2023/12/09 05:20:19;;;;;;;69.80;29.02;;;;;;;1.37;100.00;98256.81;3142768;23;20090;-93
2023/12/09 05:21:35;;;;;;;71.93;30.13;;;;;;;1.34;100.00;98256.81;3125290;23;20030;-94
2023/12/09 05:22:51;;;;;;;74.47;28.73;;;;;;;1.35;100.00;98259.41;3131254;23;20081;-94
2023/12/09 05:24:06;;;;;;;72.55;29.80;;;;;;;1.33;100.00;98260.22;3144883;23;20112;-92
2023/12/09 05:25:22;;;;;;;77.95;29.33;;;;;;;1.43;100.00;98274.91;3139791;23;20031;-94
2023/12/09 05:26:37;;;;;;;72.72;29.38;;;;;;;1.50;100.00;98266.34;3154920;23;20053;-94
2023/12/09 05:27:53;;;;;;;73.28;29.58;;;;;;;1.64;100.00;98257.81;3154261;23;20347;-93
2023/12/09 05:29:09;;;;;;;67.95;28.25;;;;;;;1.65;100.00;98265.59;3139724;23;20026;-93
2023/12/09 05:30:25;;;;;;;67.85;28.40;;;;;;;1.72;100.00;98257.84;3144796;23;20022;-91
2023/12/09 05:31:40;;;;;;;66.78;28.17;;;;;;;1.74;100.00;98254.44;3139241;23;20026;-94
2023/12/09 05:32:57;;;;;;;66.55;29.80;;;;;;;1.72;100.00;98248.41;3145023;23;20033;-92
2023/12/09 05:34:13;;;;;;;63.97;27.92;;;;;;;1.68;100.00;98249.25;3155043;23;20034;-92
2023/12/09 05:35:29;;;;;;;75.95;29.80;;;;;;;1.77;100.00;98251.00;3163749;23;20018;-93
2023/12/09 05:36:44;;;;;;;63.25;28.05;;;;;;;1.66;100.00;98256.97;3133459;23;20498;-92
2023/12/09 05:38:00;;;;;;;72.55;29.00;;;;;;;1.24;100.00;98253.31;3135676;23;20060;-93
2023/12/09 05:39:16;;;;;;;87.03;32.47;;;;;;;1.51;100.00;98250.00;3144709;23;20054;-93
2023/12/09 05:40:32;;;;;;;73.68;31.55;;;;;;;1.67;100.00;98250.09;3144217;23;20033;-91
2023/12/09 05:41:47;;;;;;;79.13;31.42;;;;;;;1.72;100.00;98250.13;3139429;23;20097;-92
2023/12/09 05:43:03;;;;;;;81.78;31.45;;;;;;;1.78;100.00;98256.16;3144614;23;20018;-92
2023/12/09 05:44:19;;;;;;;81.45;32.03;;;;;;;1.79;100.00;98249.28;3139653;23;20018;-92
2023/12/09 05:45:35;;;;;;;73.50;31.00;;;;;;;1.80;100.00;98251.88;3139849;23;20282;-92
2023/12/09 05:46:50;;;;;;;81.00;32.08;;;;;;;1.67;100.00;98250.09;3139703;23;20018;-92
2023/12/09 05:48:06;;;;;;;77.13;32.88;;;;;;;1.60;100.00;98258.66;3139831;23;20503;-93
2023/12/09 05:49:23;;;;;;;81.80;31.25;;;;;;;1.74;100.00;98253.56;3125087;23;20091;-93
2023/12/09 05:50:39;;;;;;;78.93;32.20;;;;;;;1.67;100.00;98261.28;3136206;23;20059;-94
2023/12/09 05:51:54;;;;;;;78.65;31.63;;;;;;;1.67;100.00;98260.41;3125018;23;20019;-93